sensor_id;sensor_type;location;lat;lon;timestamp;temperature;humidity
15959;DHT22;8078;47.822;9.402;2023-03-20T00:01:23;5.60;99.90
15959;DHT22;8078;47.822;9.402;2023-03-20T00:03:49;5.60;99.90
15959;DHT22;8078;47.822;9.402;2023-03-20T00:06:26;5.70;99.90
15959;DHT22;8078;47.822;9.402;2023-03-20T00:08:54;5.60;99.90
15959;DHT22;8078;47.822;9.402;2023-03-20T00:11:27;5.60;99.90
15959;DHT22;8078;47.822;9.402;2023-03-20T00:14:06;5.60;99.90
15959;DHT22;8078;47.822;9.402;2023-03-20T00:16:35;5.60;99.90
15959;DHT22;8078;47.822;9.402;2023-03-20T00:19:02;5.60;99.90
15959;DHT22;8078;47.822;9.402;2023-03-20T00:21:28;5.60;99.90
15959;DHT22;8078;47.822;9.402;2023-03-20T00:23:54;5.60;99.90
15959;DHT22;8078;47.822;9.402;2023-03-20T00:26:26;5.60;99.90
15959;DHT22;8078;47.822;9.402;2023-03-20T00:28:52;5.60;99.90
15959;DHT22;8078;47.822;9.402;2023-03-20T00:31:26;5.60;99.90
15959;DHT22;8078;47.822;9.402;2023-03-20T00:33:54;5.60;99.90
15959;DHT22;8078;47.822;9.402;2023-03-20T00:36:20;5.60;99.90
15959;DHT22;8078;47.822;9.402;2023-03-20T00:38:46;5.60;99.90
15959;DHT22;8078;47.822;9.402;2023-03-20T00:43:52;5.60;99.90
15959;DHT22;8078;47.822;9.402;2023-03-20T00:46:19;5.60;99.90
15959;DHT22;8078;47.822;9.402;2023-03-20T00:48:45;5.60;99.90
15959;DHT22;8078;47.822;9.402;2023-03-20T00:51:12;5.50;99.90
15959;DHT22;8078;47.822;9.402;2023-03-20T00:53:37;5.60;99.90
15959;DHT22;8078;47.822;9.402;2023-03-20T00:56:03;5.50;99.90
15959;DHT22;8078;47.822;9.402;2023-03-20T00:58:29;5.60;99.90
15959;DHT22;8078;47.822;9.402;2023-03-20T01:00:55;5.60;99.90
15959;DHT22;8078;47.822;9.402;2023-03-20T01:03:23;5.60;99.90
15959;DHT22;8078;47.822;9.402;2023-03-20T01:05:50;5.50;99.90
15959;DHT22;8078;47.822;9.402;2023-03-20T01:08:21;5.60;99.90
15959;DHT22;8078;47.822;9.402;2023-03-20T01:10:49;5.60;99.90
15959;DHT22;8078;47.822;9.402;2023-03-20T01:13:27;5.50;99.90
15959;DHT22;8078;47.822;9.402;2023-03-20T01:15:55;5.50;99.90
15959;DHT22;8078;47.822;9.402;2023-03-20T01:18:24;5.50;99.90
15959;DHT22;8078;47.822;9.402;2023-03-20T01:20:50;5.40;99.90
15959;DHT22;8078;47.822;9.402;2023-03-20T01:23:18;5.40;99.90
15959;DHT22;8078;47.822;9.402;2023-03-20T01:25:43;5.30;99.90
15959;DHT22;8078;47.822;9.402;2023-03-20T01:28:18;5.30;99.90
15959;DHT22;8078;47.822;9.402;2023-03-20T01:30:45;5.30;99.90
15959;DHT22;8078;47.822;9.402;2023-03-20T01:33:19;5.30;99.90
15959;DHT22;8078;47.822;9.402;2023-03-20T01:35:46;5.40;99.90
15959;DHT22;8078;47.822;9.402;2023-03-20T01:38:18;5.30;99.90
15959;DHT22;8078;47.822;9.402;2023-03-20T01:40:52;5.30;99.90
15959;DHT22;8078;47.822;9.402;2023-03-20T01:43:20;5.30;99.90
15959;DHT22;8078;47.822;9.402;2023-03-20T01:45:55;5.30;99.90
15959;DHT22;8078;47.822;9.402;2023-03-20T01:48:23;5.30;99.90
15959;DHT22;8078;47.822;9.402;2023-03-20T01:50:51;5.30;99.90
15959;DHT22;8078;47.822;9.402;2023-03-20T01:53:26;5.30;99.90
15959;DHT22;8078;47.822;9.402;2023-03-20T01:55:54;5.30;99.90
15959;DHT22;8078;47.822;9.402;2023-03-20T01:58:25;5.30;99.90
15959;DHT22;8078;47.822;9.402;2023-03-20T02:00:52;5.30;99.90
15959;DHT22;8078;47.822;9.402;2023-03-20T02:03:18;5.30;99.90
15959;DHT22;8078;47.822;9.402;2023-03-20T02:05:44;5.20;99.90
15959;DHT22;8078;47.822;9.402;2023-03-20T02:08:29;5.30;99.90
15959;DHT22;8078;47.822;9.402;2023-03-20T02:10:57;5.20;99.90
15959;DHT22;8078;47.822;9.402;2023-03-20T02:13:25;5.20;99.90
15959;DHT22;8078;47.822;9.402;2023-03-20T02:16:06;5.20;99.90
15959;DHT22;8078;47.822;9.402;2023-03-20T02:18:35;5.10;99.90
15959;DHT22;8078;47.822;9.402;2023-03-20T02:21:41;5.10;99.90
15959;DHT22;8078;47.822;9.402;2023-03-20T02:27:37;5.00;99.90
15959;DHT22;8078;47.822;9.402;2023-03-20T02:36:39;5.10;99.90
15959;DHT22;8078;47.822;9.402;2023-03-20T02:44:45;5.10;99.90
15959;DHT22;8078;47.822;9.402;2023-03-20T02:47:21;5.10;99.90
15959;DHT22;8078;47.822;9.402;2023-03-20T02:50:27;5.00;99.90
15959;DHT22;8078;47.822;9.402;2023-03-20T02:53:00;5.00;99.90
15959;DHT22;8078;47.822;9.402;2023-03-20T03:02:04;5.00;99.90
15959;DHT22;8078;47.822;9.402;2023-03-20T03:04:17;5.10;99.90
15959;DHT22;8078;47.822;9.402;2023-03-20T03:06:46;5.10;99.90
15959;DHT22;8078;47.822;9.402;2023-03-20T03:09:20;5.00;99.90
15959;DHT22;8078;47.822;9.402;2023-03-20T03:11:56;5.00;99.90
15959;DHT22;8078;47.822;9.402;2023-03-20T03:14:36;5.10;99.90
15959;DHT22;8078;47.822;9.402;2023-03-20T03:17:05;5.10;99.90
15959;DHT22;8078;47.822;9.402;2023-03-20T03:19:33;5.00;99.90
15959;DHT22;8078;47.822;9.402;2023-03-20T03:21:59;5.00;99.90
15959;DHT22;8078;47.822;9.402;2023-03-20T03:24:38;5.00;99.90
15959;DHT22;8078;47.822;9.402;2023-03-20T03:27:33;5.10;99.90
15959;DHT22;8078;47.822;9.402;2023-03-20T03:30:12;5.00;99.90
15959;DHT22;8078;47.822;9.402;2023-03-20T03:32:50;5.00;99.90
15959;DHT22;8078;47.822;9.402;2023-03-20T03:35:21;5.00;99.90
15959;DHT22;8078;47.822;9.402;2023-03-20T03:37:56;5.10;99.90
15959;DHT22;8078;47.822;9.402;2023-03-20T03:40:34;5.10;99.90
15959;DHT22;8078;47.822;9.402;2023-03-20T03:43:08;5.20;99.90
15959;DHT22;8078;47.822;9.402;2023-03-20T03:45:58;5.20;99.90
15959;DHT22;8078;47.822;9.402;2023-03-20T03:48:29;5.30;99.90
15959;DHT22;8078;47.822;9.402;2023-03-20T03:51:01;5.30;99.90
15959;DHT22;8078;47.822;9.402;2023-03-20T03:53:35;5.30;99.90
15959;DHT22;8078;47.822;9.402;2023-03-20T03:56:05;5.30;99.90
15959;DHT22;8078;47.822;9.402;2023-03-20T03:58:38;5.30;99.90
15959;DHT22;8078;47.822;9.402;2023-03-20T04:01:06;5.40;99.90
15959;DHT22;8078;47.822;9.402;2023-03-20T04:03:38;5.40;99.90
15959;DHT22;8078;47.822;9.402;2023-03-20T04:06:05;5.40;99.90
15959;DHT22;8078;47.822;9.402;2023-03-20T04:08:33;5.40;99.90
15959;DHT22;8078;47.822;9.402;2023-03-20T04:10:58;5.40;99.90
15959;DHT22;8078;47.822;9.402;2023-03-20T04:13:24;5.40;99.90
15959;DHT22;8078;47.822;9.402;2023-03-20T04:15:50;5.40;99.90
15959;DHT22;8078;47.822;9.402;2023-03-20T04:18:17;5.40;99.90
15959;DHT22;8078;47.822;9.402;2023-03-20T04:20:47;5.40;99.90
15959;DHT22;8078;47.822;9.402;2023-03-20T04:23:13;5.40;99.90
15959;DHT22;8078;47.822;9.402;2023-03-20T04:25:39;5.30;99.90
15959;DHT22;8078;47.822;9.402;2023-03-20T04:28:05;5.40;99.90
15959;DHT22;8078;47.822;9.402;2023-03-20T04:30:31;5.30;99.90
15959;DHT22;8078;47.822;9.402;2023-03-20T04:32:56;5.30;99.90
15959;DHT22;8078;47.822;9.402;2023-03-20T04:35:22;5.30;99.90
15959;DHT22;8078;47.822;9.402;2023-03-20T04:37:48;5.30;99.90
15959;DHT22;8078;47.822;9.402;2023-03-20T04:40:13;5.30;99.90
15959;DHT22;8078;47.822;9.402;2023-03-20T04:42:39;5.30;99.90
15959;DHT22;8078;47.822;9.402;2023-03-20T04:45:06;5.30;99.90
15959;DHT22;8078;47.822;9.402;2023-03-20T04:47:32;5.30;99.90
15959;DHT22;8078;47.822;9.402;2023-03-20T04:49:57;5.30;99.90
15959;DHT22;8078;47.822;9.402;2023-03-20T04:52:23;5.30;99.90
15959;DHT22;8078;47.822;9.402;2023-03-20T04:54:48;5.30;99.90
15959;DHT22;8078;47.822;9.402;2023-03-20T04:57:14;5.40;99.90
15959;DHT22;8078;47.822;9.402;2023-03-20T04:59:41;5.40;99.90
15959;DHT22;8078;47.822;9.402;2023-03-20T05:02:06;5.40;99.90
15959;DHT22;8078;47.822;9.402;2023-03-20T05:04:32;5.40;99.90
15959;DHT22;8078;47.822;9.402;2023-03-20T05:06:57;5.40;99.90
15959;DHT22;8078;47.822;9.402;2023-03-20T05:09:23;5.40;99.90
15959;DHT22;8078;47.822;9.402;2023-03-20T05:11:48;5.40;99.90
15959;DHT22;8078;47.822;9.402;2023-03-20T05:14:14;5.40;99.90
15959;DHT22;8078;47.822;9.402;2023-03-20T05:16:39;5.40;99.90
15959;DHT22;8078;47.822;9.402;2023-03-20T05:19:05;5.40;99.90
15959;DHT22;8078;47.822;9.402;2023-03-20T05:21:31;5.40;99.90
15959;DHT22;8078;47.822;9.402;2023-03-20T05:23:56;5.40;99.90
15959;DHT22;8078;47.822;9.402;2023-03-20T05:26:22;5.40;99.90
15959;DHT22;8078;47.822;9.402;2023-03-20T05:28:48;5.30;99.90
15959;DHT22;8078;47.822;9.402;2023-03-20T05:31:13;5.30;99.90
15959;DHT22;8078;47.822;9.402;2023-03-20T05:33:39;5.10;99.90
15959;DHT22;8078;47.822;9.402;2023-03-20T05:36:05;4.90;99.90
15959;DHT22;8078;47.822;9.402;2023-03-20T05:38:31;4.80;99.90
15959;DHT22;8078;47.822;9.402;2023-03-20T05:40:58;4.80;99.90
15959;DHT22;8078;47.822;9.402;2023-03-20T05:43:24;4.80;99.90
15959;DHT22;8078;47.822;9.402;2023-03-20T05:45:50;4.80;99.90
15959;DHT22;8078;47.822;9.402;2023-03-20T05:48:15;4.80;99.90
15959;DHT22;8078;47.822;9.402;2023-03-20T05:50:41;4.80;99.90
15959;DHT22;8078;47.822;9.402;2023-03-20T05:53:07;4.80;99.90
15959;DHT22;8078;47.822;9.402;2023-03-20T05:55:32;4.80;99.90
15959;DHT22;8078;47.822;9.402;2023-03-20T05:57:58;4.90;99.90
15959;DHT22;8078;47.822;9.402;2023-03-20T06:00:24;4.90;99.90
15959;DHT22;8078;47.822;9.402;2023-03-20T06:02:49;4.90;99.90
15959;DHT22;8078;47.822;9.402;2023-03-20T06:05:15;4.90;99.90
15959;DHT22;8078;47.822;9.402;2023-03-20T06:07:41;4.80;99.90
15959;DHT22;8078;47.822;9.402;2023-03-20T06:10:07;4.90;99.90
15959;DHT22;8078;47.822;9.402;2023-03-20T06:12:33;4.90;99.90
15959;DHT22;8078;47.822;9.402;2023-03-20T06:14:59;4.90;99.90
15959;DHT22;8078;47.822;9.402;2023-03-20T06:17:25;4.90;99.90
15959;DHT22;8078;47.822;9.402;2023-03-20T06:19:50;4.90;99.90
15959;DHT22;8078;47.822;9.402;2023-03-20T06:22:16;4.90;99.90
15959;DHT22;8078;47.822;9.402;2023-03-20T06:24:41;4.90;99.90
15959;DHT22;8078;47.822;9.402;2023-03-20T06:27:07;4.90;99.90
15959;DHT22;8078;47.822;9.402;2023-03-20T06:29:33;5.00;99.90
15959;DHT22;8078;47.822;9.402;2023-03-20T06:31:58;5.00;99.90
15959;DHT22;8078;47.822;9.402;2023-03-20T06:34:24;5.10;99.90
15959;DHT22;8078;47.822;9.402;2023-03-20T06:36:50;5.10;99.90
15959;DHT22;8078;47.822;9.402;2023-03-20T06:39:15;5.00;99.90
15959;DHT22;8078;47.822;9.402;2023-03-20T06:41:41;5.10;99.90
15959;DHT22;8078;47.822;9.402;2023-03-20T06:44:07;5.10;99.90
15959;DHT22;8078;47.822;9.402;2023-03-20T06:46:32;5.10;99.90
15959;DHT22;8078;47.822;9.402;2023-03-20T06:48:58;5.10;99.90
15959;DHT22;8078;47.822;9.402;2023-03-20T06:51:23;5.10;99.90
15959;DHT22;8078;47.822;9.402;2023-03-20T06:53:49;5.10;99.90
15959;DHT22;8078;47.822;9.402;2023-03-20T06:56:15;5.20;99.90
15959;DHT22;8078;47.822;9.402;2023-03-20T06:58:41;5.20;99.90
15959;DHT22;8078;47.822;9.402;2023-03-20T07:01:15;5.20;99.90
15959;DHT22;8078;47.822;9.402;2023-03-20T07:03:42;5.20;99.90
15959;DHT22;8078;47.822;9.402;2023-03-20T07:06:08;5.20;99.90
15959;DHT22;8078;47.822;9.402;2023-03-20T07:08:36;5.30;99.90
15959;DHT22;8078;47.822;9.402;2023-03-20T07:11:02;5.30;99.90
15959;DHT22;8078;47.822;9.402;2023-03-20T07:13:29;5.30;99.90
15959;DHT22;8078;47.822;9.402;2023-03-20T07:15:55;5.40;99.90
15959;DHT22;8078;47.822;9.402;2023-03-20T07:18:23;5.30;99.90
15959;DHT22;8078;47.822;9.402;2023-03-20T07:20:50;5.40;99.90
15959;DHT22;8078;47.822;9.402;2023-03-20T07:23:17;5.30;99.90
15959;DHT22;8078;47.822;9.402;2023-03-20T07:25:42;5.40;99.90
15959;DHT22;8078;47.822;9.402;2023-03-20T07:28:09;5.40;99.90
15959;DHT22;8078;47.822;9.402;2023-03-20T07:30:34;5.40;99.90
15959;DHT22;8078;47.822;9.402;2023-03-20T07:33:00;5.40;99.90
15959;DHT22;8078;47.822;9.402;2023-03-20T07:35:25;5.30;99.90
15959;DHT22;8078;47.822;9.402;2023-03-20T07:37:51;5.40;99.90
15959;DHT22;8078;47.822;9.402;2023-03-20T07:40:17;5.40;99.90
15959;DHT22;8078;47.822;9.402;2023-03-20T07:42:44;5.40;99.90
15959;DHT22;8078;47.822;9.402;2023-03-20T07:45:09;5.30;99.90
15959;DHT22;8078;47.822;9.402;2023-03-20T07:47:35;5.50;99.90
15959;DHT22;8078;47.822;9.402;2023-03-20T07:50:01;5.60;99.90
15959;DHT22;8078;47.822;9.402;2023-03-20T07:52:26;5.60;99.90
15959;DHT22;8078;47.822;9.402;2023-03-20T07:54:52;6.00;99.90
15959;DHT22;8078;47.822;9.402;2023-03-20T07:57:17;6.00;99.90
15959;DHT22;8078;47.822;9.402;2023-03-20T07:59:43;6.10;99.90
15959;DHT22;8078;47.822;9.402;2023-03-20T08:02:16;6.20;99.90
15959;DHT22;8078;47.822;9.402;2023-03-20T08:04:42;6.30;99.90
15959;DHT22;8078;47.822;9.402;2023-03-20T08:07:08;6.60;99.90
15959;DHT22;8078;47.822;9.402;2023-03-20T08:09:34;6.70;99.90
15959;DHT22;8078;47.822;9.402;2023-03-20T08:12:00;6.70;99.90
15959;DHT22;8078;47.822;9.402;2023-03-20T08:14:25;6.80;99.90
15959;DHT22;8078;47.822;9.402;2023-03-20T08:16:51;6.90;99.90
15959;DHT22;8078;47.822;9.402;2023-03-20T08:19:17;7.00;99.90
15959;DHT22;8078;47.822;9.402;2023-03-20T08:21:42;6.80;99.90
15959;DHT22;8078;47.822;9.402;2023-03-20T08:24:08;6.70;99.90
15959;DHT22;8078;47.822;9.402;2023-03-20T08:26:33;6.60;99.90
15959;DHT22;8078;47.822;9.402;2023-03-20T08:28:59;6.60;99.90
15959;DHT22;8078;47.822;9.402;2023-03-20T08:31:25;6.60;99.90
15959;DHT22;8078;47.822;9.402;2023-03-20T08:33:51;6.70;99.90
15959;DHT22;8078;47.822;9.402;2023-03-20T08:36:17;6.80;99.90
15959;DHT22;8078;47.822;9.402;2023-03-20T08:38:47;6.90;99.90
15959;DHT22;8078;47.822;9.402;2023-03-20T08:41:13;7.00;99.90
15959;DHT22;8078;47.822;9.402;2023-03-20T08:43:38;6.90;99.90
15959;DHT22;8078;47.822;9.402;2023-03-20T08:46:04;7.30;99.90
15959;DHT22;8078;47.822;9.402;2023-03-20T08:48:30;7.50;99.90
15959;DHT22;8078;47.822;9.402;2023-03-20T08:50:55;7.70;99.90
15959;DHT22;8078;47.822;9.402;2023-03-20T08:53:21;8.00;99.90
15959;DHT22;8078;47.822;9.402;2023-03-20T08:55:51;8.10;99.90
15959;DHT22;8078;47.822;9.402;2023-03-20T08:58:17;8.50;99.90
15959;DHT22;8078;47.822;9.402;2023-03-20T09:00:43;7.80;99.90
15959;DHT22;8078;47.822;9.402;2023-03-20T09:03:13;8.10;99.90
15959;DHT22;8078;47.822;9.402;2023-03-20T09:05:42;7.40;99.90
15959;DHT22;8078;47.822;9.402;2023-03-20T09:08:08;7.40;99.90
15959;DHT22;8078;47.822;9.402;2023-03-20T09:10:33;7.40;99.90
15959;DHT22;8078;47.822;9.402;2023-03-20T09:12:59;7.70;99.90
15959;DHT22;8078;47.822;9.402;2023-03-20T09:15:26;8.30;99.90
15959;DHT22;8078;47.822;9.402;2023-03-20T09:17:51;7.90;99.90
15959;DHT22;8078;47.822;9.402;2023-03-20T09:20:17;8.10;99.90
15959;DHT22;8078;47.822;9.402;2023-03-20T09:22:42;8.00;99.90
15959;DHT22;8078;47.822;9.402;2023-03-20T09:25:10;8.10;99.90
15959;DHT22;8078;47.822;9.402;2023-03-20T09:27:36;8.00;99.90
15959;DHT22;8078;47.822;9.402;2023-03-20T09:30:02;7.80;99.90
15959;DHT22;8078;47.822;9.402;2023-03-20T09:32:27;8.20;99.90
15959;DHT22;8078;47.822;9.402;2023-03-20T09:34:53;8.70;99.90
15959;DHT22;8078;47.822;9.402;2023-03-20T09:37:18;8.80;99.90
15959;DHT22;8078;47.822;9.402;2023-03-20T09:39:44;8.60;99.90
15959;DHT22;8078;47.822;9.402;2023-03-20T09:53:55;9.60;99.90
15959;DHT22;8078;47.822;9.402;2023-03-20T09:56:25;10.60;99.90
15959;DHT22;8078;47.822;9.402;2023-03-20T09:58:57;10.40;99.90
15959;DHT22;8078;47.822;9.402;2023-03-20T10:01:26;11.30;99.90
15959;DHT22;8078;47.822;9.402;2023-03-20T10:04:06;11.50;99.90
15959;DHT22;8078;47.822;9.402;2023-03-20T10:06:33;12.20;99.90
15959;DHT22;8078;47.822;9.402;2023-03-20T10:08:59;11.50;99.90
15959;DHT22;8078;47.822;9.402;2023-03-20T10:11:42;10.30;99.90
15959;DHT22;8078;47.822;9.402;2023-03-20T10:14:31;10.10;99.90
15959;DHT22;8078;47.822;9.402;2023-03-20T10:17:28;9.20;99.90
15959;DHT22;8078;47.822;9.402;2023-03-20T10:20:09;8.90;99.90
15959;DHT22;8078;47.822;9.402;2023-03-20T10:22:38;8.50;99.90
15959;DHT22;8078;47.822;9.402;2023-03-20T10:25:19;8.30;99.90
15959;DHT22;8078;47.822;9.402;2023-03-20T10:33:30;8.20;99.90
15959;DHT22;8078;47.822;9.402;2023-03-20T10:39:36;8.10;99.90
15959;DHT22;8078;47.822;9.402;2023-03-20T10:42:20;7.90;99.90
15959;DHT22;8078;47.822;9.402;2023-03-20T10:47:41;7.80;99.90
15959;DHT22;8078;47.822;9.402;2023-03-20T10:50:15;7.70;99.90
15959;DHT22;8078;47.822;9.402;2023-03-20T10:52:42;7.90;99.90
15959;DHT22;8078;47.822;9.402;2023-03-20T10:55:13;8.00;99.90
15959;DHT22;8078;47.822;9.402;2023-03-20T10:57:45;8.20;99.90
15959;DHT22;8078;47.822;9.402;2023-03-20T11:00:21;8.30;99.90
15959;DHT22;8078;47.822;9.402;2023-03-20T11:02:48;8.70;99.90
15959;DHT22;8078;47.822;9.402;2023-03-20T11:05:30;9.10;99.90
15959;DHT22;8078;47.822;9.402;2023-03-20T11:08:10;9.40;99.90
15959;DHT22;8078;47.822;9.402;2023-03-20T11:10:38;9.90;99.90
15959;DHT22;8078;47.822;9.402;2023-03-20T11:13:24;9.70;99.90
15959;DHT22;8078;47.822;9.402;2023-03-20T11:15:51;9.80;99.90
15959;DHT22;8078;47.822;9.402;2023-03-20T11:18:17;9.50;99.90
15959;DHT22;8078;47.822;9.402;2023-03-20T11:20:55;9.60;99.90
15959;DHT22;8078;47.822;9.402;2023-03-20T11:23:31;9.70;99.90
15959;DHT22;8078;47.822;9.402;2023-03-20T11:26:03;10.10;99.90
15959;DHT22;8078;47.822;9.402;2023-03-20T11:28:36;10.40;99.90
15959;DHT22;8078;47.822;9.402;2023-03-20T11:31:05;10.20;99.90
15959;DHT22;8078;47.822;9.402;2023-03-20T11:33:35;10.40;99.90
15959;DHT22;8078;47.822;9.402;2023-03-20T11:36:10;9.90;99.90
15959;DHT22;8078;47.822;9.402;2023-03-20T11:38:42;9.90;99.90
15959;DHT22;8078;47.822;9.402;2023-03-20T11:41:21;10.10;99.90
15959;DHT22;8078;47.822;9.402;2023-03-20T11:43:47;10.00;99.90
15959;DHT22;8078;47.822;9.402;2023-03-20T11:46:13;9.50;99.90
15959;DHT22;8078;47.822;9.402;2023-03-20T11:48:41;9.20;99.90
15959;DHT22;8078;47.822;9.402;2023-03-20T11:51:14;9.10;99.90
15959;DHT22;8078;47.822;9.402;2023-03-20T11:54:00;8.80;99.90
15959;DHT22;8078;47.822;9.402;2023-03-20T11:56:28;8.50;99.90
15959;DHT22;8078;47.822;9.402;2023-03-20T11:59:13;8.50;99.90
15959;DHT22;8078;47.822;9.402;2023-03-20T12:01:43;8.60;99.90
15959;DHT22;8078;47.822;9.402;2023-03-20T12:06:58;8.80;99.90
15959;DHT22;8078;47.822;9.402;2023-03-20T12:17:50;8.60;99.90
15959;DHT22;8078;47.822;9.402;2023-03-20T12:22:57;9.00;99.90
15959;DHT22;8078;47.822;9.402;2023-03-20T12:25:28;8.90;99.90
15959;DHT22;8078;47.822;9.402;2023-03-20T12:30:49;9.30;99.90
15959;DHT22;8078;47.822;9.402;2023-03-20T12:35:57;9.70;99.90
15959;DHT22;8078;47.822;9.402;2023-03-20T12:38:29;9.60;99.90
15959;DHT22;8078;47.822;9.402;2023-03-20T12:41:11;9.60;99.90
15959;DHT22;8078;47.822;9.402;2023-03-20T12:46:52;9.60;99.90
15959;DHT22;8078;47.822;9.402;2023-03-20T12:49:36;9.60;99.90
15959;DHT22;8078;47.822;9.402;2023-03-20T12:55:09;9.70;99.90
15959;DHT22;8078;47.822;9.402;2023-03-20T13:03:48;9.40;99.90
15959;DHT22;8078;47.822;9.402;2023-03-20T13:17:24;10.00;99.90
15959;DHT22;8078;47.822;9.402;2023-03-20T13:25:53;9.80;99.90
15959;DHT22;8078;47.822;9.402;2023-03-20T13:33:50;9.70;99.90
15959;DHT22;8078;47.822;9.402;2023-03-20T13:39:17;9.60;99.90
15959;DHT22;8078;47.822;9.402;2023-03-20T13:41:45;9.60;99.90
15959;DHT22;8078;47.822;9.402;2023-03-20T13:44:13;9.40;99.90
15959;DHT22;8078;47.822;9.402;2023-03-20T13:46:59;9.30;99.90
15959;DHT22;8078;47.822;9.402;2023-03-20T13:49:35;9.30;99.90
15959;DHT22;8078;47.822;9.402;2023-03-20T13:52:21;9.50;99.90
15959;DHT22;8078;47.822;9.402;2023-03-20T13:55:12;9.50;99.90
15959;DHT22;8078;47.822;9.402;2023-03-20T13:58:05;9.40;99.90
15959;DHT22;8078;47.822;9.402;2023-03-20T14:00:46;10.00;99.90
15959;DHT22;8078;47.822;9.402;2023-03-20T14:03:14;10.20;99.90
15959;DHT22;8078;47.822;9.402;2023-03-20T14:05:42;10.20;99.90
15959;DHT22;8078;47.822;9.402;2023-03-20T14:13:48;10.40;99.90
15959;DHT22;8078;47.822;9.402;2023-03-20T14:16:17;10.10;99.90
15959;DHT22;8078;47.822;9.402;2023-03-20T14:18:49;9.70;99.90
15959;DHT22;8078;47.822;9.402;2023-03-20T14:21:19;9.80;99.90
15959;DHT22;8078;47.822;9.402;2023-03-20T14:23:49;9.90;99.90
15959;DHT22;8078;47.822;9.402;2023-03-20T14:26:22;9.90;99.90
15959;DHT22;8078;47.822;9.402;2023-03-20T14:31:29;11.00;99.90
15959;DHT22;8078;47.822;9.402;2023-03-20T14:37:01;11.60;99.90
15959;DHT22;8078;47.822;9.402;2023-03-20T14:42:34;11.10;99.90
15959;DHT22;8078;47.822;9.402;2023-03-20T14:53:15;10.40;99.90
15959;DHT22;8078;47.822;9.402;2023-03-20T15:01:06;9.40;99.90
15959;DHT22;8078;47.822;9.402;2023-03-20T15:03:32;9.30;99.90
15959;DHT22;8078;47.822;9.402;2023-03-20T15:06:00;9.40;99.90
15959;DHT22;8078;47.822;9.402;2023-03-20T15:08:31;9.70;99.90
15959;DHT22;8078;47.822;9.402;2023-03-20T15:11:04;9.90;99.90
15959;DHT22;8078;47.822;9.402;2023-03-20T15:13:30;9.90;99.90
15959;DHT22;8078;47.822;9.402;2023-03-20T15:16:07;10.40;99.90
15959;DHT22;8078;47.822;9.402;2023-03-20T15:18:45;10.50;99.90
15959;DHT22;8078;47.822;9.402;2023-03-20T15:21:16;10.50;99.90
15959;DHT22;8078;47.822;9.402;2023-03-20T15:23:43;10.80;99.90
15959;DHT22;8078;47.822;9.402;2023-03-20T15:26:14;11.00;99.90
15959;DHT22;8078;47.822;9.402;2023-03-20T15:28:45;10.90;99.90
15959;DHT22;8078;47.822;9.402;2023-03-20T15:31:38;10.70;99.90
15959;DHT22;8078;47.822;9.402;2023-03-20T15:34:08;10.70;99.90
15959;DHT22;8078;47.822;9.402;2023-03-20T15:36:34;10.50;99.90
15959;DHT22;8078;47.822;9.402;2023-03-20T15:39:13;11.20;99.90
15959;DHT22;8078;47.822;9.402;2023-03-20T15:41:42;11.60;99.90
15959;DHT22;8078;47.822;9.402;2023-03-20T15:46:49;11.10;99.90
15959;DHT22;8078;47.822;9.402;2023-03-20T15:49:18;10.70;99.90
15959;DHT22;8078;47.822;9.402;2023-03-20T15:51:45;10.20;99.90
15959;DHT22;8078;47.822;9.402;2023-03-20T15:54:12;10.10;99.90
15959;DHT22;8078;47.822;9.402;2023-03-20T15:56:39;10.20;99.90
15959;DHT22;8078;47.822;9.402;2023-03-20T15:59:09;10.20;99.90
15959;DHT22;8078;47.822;9.402;2023-03-20T16:01:38;10.10;99.90
15959;DHT22;8078;47.822;9.402;2023-03-20T16:04:03;10.00;99.90
15959;DHT22;8078;47.822;9.402;2023-03-20T16:06:29;10.30;99.90
15959;DHT22;8078;47.822;9.402;2023-03-20T16:09:11;10.80;99.90
15959;DHT22;8078;47.822;9.402;2023-03-20T16:11:40;11.20;99.90
15959;DHT22;8078;47.822;9.402;2023-03-20T16:14:08;10.80;99.90
15959;DHT22;8078;47.822;9.402;2023-03-20T16:16:35;10.80;99.90
15959;DHT22;8078;47.822;9.402;2023-03-20T16:19:04;11.30;99.90
15959;DHT22;8078;47.822;9.402;2023-03-20T16:21:33;11.10;99.90
15959;DHT22;8078;47.822;9.402;2023-03-20T16:24:05;11.30;99.90
15959;DHT22;8078;47.822;9.402;2023-03-20T16:26:36;11.40;99.90
15959;DHT22;8078;47.822;9.402;2023-03-20T16:29:02;11.40;99.90
15959;DHT22;8078;47.822;9.402;2023-03-20T16:31:34;10.90;99.90
15959;DHT22;8078;47.822;9.402;2023-03-20T16:34:04;10.60;99.90
15959;DHT22;8078;47.822;9.402;2023-03-20T16:36:33;10.60;99.90
15959;DHT22;8078;47.822;9.402;2023-03-20T16:39:09;10.90;99.90
15959;DHT22;8078;47.822;9.402;2023-03-20T16:41:41;10.80;99.90
15959;DHT22;8078;47.822;9.402;2023-03-20T16:44:21;10.80;99.90
15959;DHT22;8078;47.822;9.402;2023-03-20T16:49:51;10.50;99.90
15959;DHT22;8078;47.822;9.402;2023-03-20T16:52:28;10.20;99.90
15959;DHT22;8078;47.822;9.402;2023-03-20T16:54:58;10.00;99.90
15959;DHT22;8078;47.822;9.402;2023-03-20T16:57:25;10.00;99.90
15959;DHT22;8078;47.822;9.402;2023-03-20T16:59:52;10.00;99.90
15959;DHT22;8078;47.822;9.402;2023-03-20T17:02:31;9.90;99.90
15959;DHT22;8078;47.822;9.402;2023-03-20T17:05:02;9.70;99.90
15959;DHT22;8078;47.822;9.402;2023-03-20T17:07:30;9.40;99.90
15959;DHT22;8078;47.822;9.402;2023-03-20T17:12:48;9.00;99.90
15959;DHT22;8078;47.822;9.402;2023-03-20T17:15:21;8.80;99.90
15959;DHT22;8078;47.822;9.402;2023-03-20T17:17:47;8.60;99.90
15959;DHT22;8078;47.822;9.402;2023-03-20T17:20:23;8.50;99.90
15959;DHT22;8078;47.822;9.402;2023-03-20T17:22:48;8.40;99.90
15959;DHT22;8078;47.822;9.402;2023-03-20T17:25:14;8.30;99.90
15959;DHT22;8078;47.822;9.402;2023-03-20T17:27:40;8.20;99.90
15959;DHT22;8078;47.822;9.402;2023-03-20T17:30:28;8.10;99.90
15959;DHT22;8078;47.822;9.402;2023-03-20T17:32:53;8.00;99.90
15959;DHT22;8078;47.822;9.402;2023-03-20T17:35:18;7.90;99.90
15959;DHT22;8078;47.822;9.402;2023-03-20T17:37:44;8.00;99.90
15959;DHT22;8078;47.822;9.402;2023-03-20T17:40:16;7.90;99.90
15959;DHT22;8078;47.822;9.402;2023-03-20T17:42:42;7.90;99.90
15959;DHT22;8078;47.822;9.402;2023-03-20T17:45:08;7.90;99.90
15959;DHT22;8078;47.822;9.402;2023-03-20T17:47:34;7.80;99.90
15959;DHT22;8078;47.822;9.402;2023-03-20T17:50:00;7.80;99.90
15959;DHT22;8078;47.822;9.402;2023-03-20T17:52:27;7.70;99.90
15959;DHT22;8078;47.822;9.402;2023-03-20T17:54:53;7.70;99.90
15959;DHT22;8078;47.822;9.402;2023-03-20T17:59:46;7.70;99.90
15959;DHT22;8078;47.822;9.402;2023-03-20T18:02:11;7.70;99.90
15959;DHT22;8078;47.822;9.402;2023-03-20T18:04:37;7.70;99.90
15959;DHT22;8078;47.822;9.402;2023-03-20T18:07:02;7.80;99.90
15959;DHT22;8078;47.822;9.402;2023-03-20T18:09:28;7.80;99.90
15959;DHT22;8078;47.822;9.402;2023-03-20T18:11:55;7.70;99.90
15959;DHT22;8078;47.822;9.402;2023-03-20T18:14:21;7.70;99.90
15959;DHT22;8078;47.822;9.402;2023-03-20T18:16:46;7.70;99.90
15959;DHT22;8078;47.822;9.402;2023-03-20T18:19:24;7.60;99.90
15959;DHT22;8078;47.822;9.402;2023-03-20T18:21:51;7.70;99.90
15959;DHT22;8078;47.822;9.402;2023-03-20T18:24:17;7.70;99.90
15959;DHT22;8078;47.822;9.402;2023-03-20T18:26:42;7.70;99.90
15959;DHT22;8078;47.822;9.402;2023-03-20T18:29:10;7.80;99.90
15959;DHT22;8078;47.822;9.402;2023-03-20T18:31:36;7.80;99.90
15959;DHT22;8078;47.822;9.402;2023-03-20T18:34:01;7.90;99.90
15959;DHT22;8078;47.822;9.402;2023-03-20T18:36:27;7.90;99.90
15959;DHT22;8078;47.822;9.402;2023-03-20T18:38:53;7.90;99.90